Aracagi, Brazil
Current Conditions -  °F | °C
As of 11:00 PM on Wednesday 22 Oct 2014 (Local Time) from SBJP Reporting Station
Few Clouds Few Clouds  
Wind Chill: 73°   Ceiling: Unl
Heat Index: 73°   Visibility: 6mi
Dew Point: 68°   Wind: 5mph
Humidity: 83%   Direction: 160°SSE
Pressure: 30"   Gusts: NA
Location:  6.85°S, 35.38°W
Report Text: SBJP 230200Z 16004KT 9999 FEW021 23/20 Q1016
Loading
Personal Weather Stations






























Interactive Weather Map
Tropical Storm Tracking
New forecast layout! Learn more

10-Day Weather Forecast

Advertisements
Track Severe Weather on mobile